Time;durP1;ratioP1;P1;durP2;ratioP2;P2;SDS_P1;SDS_P2;PMS_P1;PMS_P2;Temp;Humidity;BMP_temperature;BMP_pressure;BME280_temperature;BME280_humidity;BME280_pressure;Samples;Min_cycle;Max_cycle;Signal;HPM_P1;HPM_P2
2022/03/02 00:02:31;;;;;;;14.27;8.40;;;;;;;-6.29;77.35;98718.91;6219301;28;20231;-72
2022/03/02 00:05:33;;;;;;;14.00;8.47;;;;;;;-6.34;77.19;98723.16;6266756;28;20229;-72
2022/03/02 00:08:36;;;;;;;16.27;9.07;;;;;;;-6.37;77.92;98712.88;6226227;28;20446;-73
2022/03/02 00:11:39;;;;;;;15.80;8.43;;;;;;;-6.39;77.49;98710.28;6265693;28;20230;-73
2022/03/02 00:14:40;;;;;;;14.77;8.67;;;;;;;-6.42;77.93;98715.44;6275657;28;20311;-72
2022/03/02 00:17:43;;;;;;;17.07;8.67;;;;;;;-6.41;78.31;98712.03;6258162;28;20235;-72
2022/03/02 00:20:45;;;;;;;16.40;8.90;;;;;;;-6.38;78.42;98714.59;6243599;28;20383;-72
2022/03/02 00:23:47;;;;;;;14.10;8.77;;;;;;;-6.40;78.53;98718.03;6257810;28;20317;-72
2022/03/02 00:26:49;;;;;;;18.27;9.60;;;;;;;-6.43;78.09;98713.72;6257773;28;20230;-73
2022/03/02 00:29:51;;;;;;;17.53;8.87;;;;;;;-6.47;78.60;98706.00;6275919;28;20234;-73
2022/03/02 00:32:54;;;;;;;13.17;8.37;;;;;;;-6.46;78.70;98700.00;6257424;28;20730;-72
2022/03/02 00:35:57;;;;;;;18.23;8.83;;;;;;;-6.46;77.68;98700.00;6275232;28;20376;-73
2022/03/02 00:38:59;;;;;;;15.57;8.37;;;;;;;-6.50;78.49;98698.31;6269175;28;20706;-73
2022/03/02 00:42:01;;;;;;;17.53;8.97;;;;;;;-6.47;78.43;98695.72;6274203;28;20407;-72
2022/03/02 00:45:04;;;;;;;15.67;8.07;;;;;;;-6.46;78.57;98688.03;6275048;28;20226;-73
2022/03/02 00:48:07;;;;;;;17.47;9.43;;;;;;;-6.50;78.17;98686.31;6275413;28;20258;-73
2022/03/02 00:51:10;;;;;;;16.53;8.73;;;;;;;-6.53;77.62;98691.44;6258011;28;20424;-73
2022/03/02 00:54:12;;;;;;;15.80;9.43;;;;;;;-6.56;77.92;98685.41;6275219;28;20628;-73
2022/03/02 00:57:15;;;;;;;19.70;9.20;;;;;;;-6.57;79.17;98676.00;6274527;28;20222;-73
2022/03/02 01:00:18;;;;;;;14.87;8.27;;;;;;;-6.58;78.59;98681.97;6257414;28;20242;-73
2022/03/02 01:03:20;;;;;;;15.20;8.40;;;;;;;-6.61;78.27;98676.88;6257452;28;22377;-73
2022/03/02 01:06:23;;;;;;;16.53;9.10;;;;;;;-6.64;78.15;98679.41;6257530;28;20303;-73
2022/03/02 01:09:24;;;;;;;15.37;8.83;;;;;;;-6.65;78.42;98675.97;6244236;28;20645;-72
2022/03/02 01:12:27;;;;;;;17.20;8.03;;;;;;;-6.68;78.55;98680.22;6257688;28;20236;-73
2022/03/02 01:15:29;;;;;;;14.70;8.40;;;;;;;-6.72;78.19;98676.81;6274640;28;20602;-73
2022/03/02 01:18:31;;;;;;;16.03;8.87;;;;;;;-6.71;78.30;98678.53;6274059;28;20736;-71
2022/03/02 01:21:33;;;;;;;15.60;8.40;;;;;;;-6.71;78.41;98678.53;6272253;28;20580;-72
2022/03/02 01:24:35;;;;;;;18.30;9.00;;;;;;;-6.74;78.67;98675.94;6275388;28;20221;-72
2022/03/02 01:27:38;;;;;;;18.53;9.67;;;;;;;-6.76;78.90;98675.09;6258060;28;20605;-73
2022/03/02 01:30:40;;;;;;;15.50;8.90;;;;;;;-6.77;79.20;98674.22;6245943;28;20705;-73
2022/03/02 01:33:42;;;;;;;14.40;8.67;;;;;;;-6.78;78.55;98669.06;6275515;28;20283;-73
2022/03/02 01:36:44;;;;;;;20.50;9.43;;;;;;;-6.80;79.47;98668.25;6274691;28;20234;-72
2022/03/02 01:39:46;;;;;;;16.07;9.53;;;;;;;-6.83;79.48;98666.50;6231592;28;20238;-72
2022/03/02 01:42:48;;;;;;;16.43;8.57;;;;;;;-6.85;78.34;98670.78;6275145;28;20245;-72
2022/03/02 01:45:50;;;;;;;16.33;7.77;;;;;;;-6.87;79.19;98662.22;6274769;28;20375;-72
2022/03/02 01:48:52;;;;;;;14.77;9.37;;;;;;;-6.86;79.47;98661.34;6257448;28;20241;-72
2022/03/02 01:51:55;;;;;;;16.70;8.83;;;;;;;-6.85;79.58;98657.09;6259377;28;20234;-73
2022/03/02 01:54:57;;;;;;;15.67;8.57;;;;;;;-6.85;79.54;98654.53;6261258;28;20238;-72
2022/03/02 01:57:59;;;;;;;15.33;9.00;;;;;;;-6.85;78.96;98649.38;6279490;28;20599;-73
2022/03/02 02:01:01;;;;;;;15.80;9.10;;;;;;;-6.85;79.26;98649.38;6248608;28;20368;-73
2022/03/02 02:04:05;;;;;;;18.70;9.20;;;;;;;-6.88;79.36;98639.97;6258988;28;20271;-72
2022/03/02 02:07:07;;;;;;;17.90;8.77;;;;;;;-6.91;78.44;98650.22;6258016;28;20230;-72
2022/03/02 02:10:11;;;;;;;18.10;9.13;;;;;;;-6.91;79.69;98641.69;6261057;28;20237;-73
2022/03/02 02:13:13;;;;;;;14.03;9.10;;;;;;;-6.91;79.48;98636.56;6278577;28;20311;-71
2022/03/02 02:16:17;;;;;;;17.77;8.97;;;;;;;-6.94;79.72;98639.09;6261019;28;20240;-72
2022/03/02 02:19:19;;;;;;;16.50;9.57;;;;;;;-6.95;80.03;98639.94;6243798;28;20227;-72
2022/03/02 02:22:21;;;;;;;15.53;8.53;;;;;;;-6.94;78.86;98636.53;6267457;28;20718;-72
2022/03/02 02:25:23;;;;;;;14.17;8.97;;;;;;;-6.97;79.26;98632.22;6278336;28;20348;-73
2022/03/02 02:28:27;;;;;;;18.10;9.73;;;;;;;-6.98;79.86;98637.34;6278125;28;20769;-73
2022/03/02 02:31:30;;;;;;;19.57;9.93;;;;;;;-6.97;79.00;98636.50;6279361;28;20306;-72
2022/03/02 02:34:32;;;;;;;20.47;10.60;;;;;;;-6.98;79.38;98624.53;6259618;28;20218;-72
2022/03/02 02:37:36;;;;;;;18.87;9.13;;;;;;;-6.99;79.78;98627.97;6252482;28;20234;-72
2022/03/02 02:40:39;;;;;;;15.23;9.57;;;;;;;-7.00;80.45;98616.00;6257073;28;20230;-73
2022/03/02 02:43:42;;;;;;;17.63;9.73;;;;;;;-7.01;80.42;98621.97;6260427;28;20226;-72
2022/03/02 02:46:45;;;;;;;17.50;8.97;;;;;;;-7.02;79.13;98610.00;6265324;28;20622;-72
2022/03/02 02:49:48;;;;;;;19.23;9.33;;;;;;;-7.05;79.63;98607.41;6281940;28;20709;-73
2022/03/02 02:52:51;;;;;;;16.17;9.67;;;;;;;-7.05;79.79;98600.56;6259647;28;20234;-73
2022/03/02 02:55:54;;;;;;;21.87;10.90;;;;;;;-7.05;80.86;98599.72;6260308;28;20267;-73
2022/03/02 02:58:56;;;;;;;15.37;9.50;;;;;;;-7.06;80.09;98598.84;6277165;28;20423;-73
2022/03/02 03:01:58;;;;;;;20.50;9.77;;;;;;;-7.05;79.56;98604.84;6269739;28;20715;-74
2022/03/02 03:05:00;;;;;;;21.90;10.67;;;;;;;-7.04;80.15;98604.00;6276707;28;20613;-74
2022/03/02 03:08:10;;;;;;;23.33;10.30;;;;;;;-7.06;80.72;98596.28;6266994;28;20235;-73
2022/03/02 03:11:12;;;;;;;21.20;11.47;;;;;;;-7.02;80.82;98594.59;6254066;28;20253;-72
2022/03/02 03:14:15;;;;;;;21.97;11.33;;;;;;;-7.00;80.32;98591.19;6276966;28;20241;-72
2022/03/02 03:17:18;;;;;;;22.50;11.63;;;;;;;-6.96;80.13;98590.34;6276821;28;20285;-73
2022/03/02 03:20:24;;;;;;;20.03;10.43;;;;;;;-6.93;80.39;98590.34;6253137;28;20428;-73
2022/03/02 03:23:28;;;;;;;22.33;11.40;;;;;;;-6.92;81.36;98589.50;6259313;28;20748;-73
2022/03/02 03:26:30;;;;;;;19.10;11.33;;;;;;;-6.91;81.59;98580.09;6259651;28;20672;-72
2022/03/02 03:29:33;;;;;;;20.80;10.63;;;;;;;-6.92;80.62;98580.97;6276779;28;20238;-72
2022/03/02 03:32:35;;;;;;;20.07;10.57;;;;;;;-6.90;81.02;98585.25;6276465;28;20583;-73
2022/03/02 03:35:38;;;;;;;20.37;10.13;;;;;;;-6.90;81.18;98579.25;6276181;28;20313;-72
2022/03/02 03:38:40;;;;;;;19.97;12.00;;;;;;;-6.91;81.19;98583.53;6261043;28;20703;-72
2022/03/02 03:41:42;;;;;;;18.37;9.33;;;;;;;-6.91;80.31;98580.97;6266386;28;20267;-73
2022/03/02 03:44:44;;;;;;;18.70;10.03;;;;;;;-6.92;81.39;98570.69;6258852;28;20614;-72
2022/03/02 03:47:46;;;;;;;16.87;10.57;;;;;;;-6.94;81.39;98578.38;6277739;28;20234;-73
2022/03/02 03:50:48;;;;;;;14.77;9.80;;;;;;;-6.94;80.72;98580.94;6257676;28;20238;-73
2022/03/02 03:53:50;;;;;;;17.00;9.87;;;;;;;-6.93;80.83;98577.53;6259158;28;20449;-73
2022/03/02 03:56:52;;;;;;;20.50;10.43;;;;;;;-6.93;81.68;98571.53;6258334;28;20237;-72
2022/03/02 03:59:54;;;;;;;21.70;10.53;;;;;;;-6.90;80.56;98577.56;6258808;28;20230;-73
2022/03/02 04:02:56;;;;;;;18.63;9.90;;;;;;;-6.88;80.62;98577.53;6275964;28;20238;-73
2022/03/02 04:05:58;;;;;;;18.53;10.17;;;;;;;-6.84;80.58;98577.56;6268702;28;20238;-74
2022/03/02 04:09:02;;;;;;;16.93;10.10;;;;;;;-6.79;81.40;98583.53;6269352;28;20719;-73
2022/03/02 04:12:05;;;;;;;17.37;10.93;;;;;;;-6.74;81.36;98579.28;6258652;28;20412;-72
2022/03/02 04:15:07;;;;;;;18.37;11.10;;;;;;;-6.73;81.72;98583.56;6275437;28;20264;-74
2022/03/02 04:18:10;;;;;;;18.67;10.33;;;;;;;-6.70;81.10;98580.16;6276602;28;20535;-72
2022/03/02 04:21:12;;;;;;;20.67;10.27;;;;;;;-6.64;81.39;98579.31;6252741;28;20372;-72
2022/03/02 04:24:14;;;;;;;17.70;10.40;;;;;;;-6.61;81.25;98569.91;6257588;28;20206;-74
2022/03/02 04:27:16;;;;;;;19.03;10.60;;;;;;;-6.58;80.86;98569.03;6275356;28;20218;-72
2022/03/02 04:30:18;;;;;;;18.00;9.90;;;;;;;-6.55;80.25;98572.47;6257668;28;20305;-71
2022/03/02 04:33:21;;;;;;;19.03;10.07;;;;;;;-6.56;80.63;98573.34;6275444;28;20227;-72
2022/03/02 04:36:23;;;;;;;18.57;9.97;;;;;;;-6.58;81.47;98571.63;6268149;28;20264;-73
2022/03/02 04:39:25;;;;;;;18.90;10.30;;;;;;;-6.60;81.38;98575.91;6260105;28;20237;-72
2022/03/02 04:42:27;;;;;;;16.27;9.27;;;;;;;-6.64;81.19;98569.91;6275421;28;20730;-72
2022/03/02 04:45:30;;;;;;;19.27;9.97;;;;;;;-6.68;80.49;98572.44;6257416;28;20233;-73
2022/03/02 04:48:32;;;;;;;16.30;9.80;;;;;;;-6.71;81.21;98570.75;6257657;28;20222;-73
2022/03/02 04:51:34;;;;;;;15.57;9.33;;;;;;;-6.73;81.65;98565.63;6275721;28;20226;-72
2022/03/02 04:58:00;;;;;;;15.60;9.50;;;;;;;-6.78;81.44;98562.16;6262283;28;20231;-72
2022/03/02 05:01:03;;;;;;;15.47;9.07;;;;;;;-6.80;80.54;98560.47;6257566;28;20351;-73
2022/03/02 05:04:05;;;;;;;17.17;9.43;;;;;;;-6.82;81.11;98554.47;6257358;28;20240;-73
2022/03/02 05:07:07;;;;;;;17.47;9.90;;;;;;;-6.84;80.40;98556.16;6253591;28;20285;-72
2022/03/02 05:10:10;;;;;;;15.10;8.80;;;;;;;-6.86;80.43;98551.03;6237861;28;20222;-72
2022/03/02 05:13:13;;;;;;;16.60;8.90;;;;;;;-6.83;80.74;98542.50;6276085;28;20303;-72
2022/03/02 05:16:15;;;;;;;17.00;9.50;;;;;;;-6.76;81.10;98545.06;6276187;28;20218;-73
2022/03/02 05:19:17;;;;;;;19.87;9.90;;;;;;;-6.77;80.85;98548.47;6267503;28;20234;-72
2022/03/02 05:22:19;;;;;;;20.23;9.60;;;;;;;-6.76;80.96;98551.91;6253056;28;20371;-73
2022/03/02 05:25:24;;;;;;;15.37;8.30;;;;;;;-6.78;81.40;98540.78;6274779;28;20321;-74
2022/03/02 05:28:26;;;;;;;15.87;9.53;;;;;;;-6.78;81.56;98554.47;6261497;28;20327;-72
2022/03/02 05:31:28;;;;;;;17.70;8.90;;;;;;;-6.82;81.52;98557.03;6280800;28;20241;-72
2022/03/02 05:34:30;;;;;;;18.73;9.90;;;;;;;-6.84;80.56;98543.34;6260230;28;20234;-69
2022/03/02 05:37:34;;;;;;;18.90;9.73;;;;;;;-6.88;81.57;98551.88;6248640;28;20237;-71
2022/03/02 05:40:36;;;;;;;16.97;8.70;;;;;;;-6.89;80.57;98550.19;6256193;28;20234;-72
2022/03/02 05:43:38;;;;;;;17.20;9.77;;;;;;;-6.92;81.47;98553.59;6236458;28;20242;-72
2022/03/02 05:46:40;;;;;;;21.60;9.90;;;;;;;-6.96;80.49;98551.88;6235768;28;20585;-71
2022/03/02 05:49:42;;;;;;;17.47;8.97;;;;;;;-6.98;80.35;98566.38;6255381;28;20237;-71
2022/03/02 05:52:44;;;;;;;21.00;9.93;;;;;;;-7.01;80.64;98568.09;6254574;28;20246;-71
2022/03/02 05:55:47;;;;;;;19.53;9.30;;;;;;;-7.00;80.24;98562.97;6255755;28;20603;-71
2022/03/02 05:58:49;;;;;;;17.97;9.70;;;;;;;-6.99;80.77;98562.13;6235801;28;20234;-71
2022/03/02 06:01:51;;;;;;;14.60;8.90;;;;;;;-6.99;80.53;98558.72;6253809;28;20772;-71
2022/03/02 06:04:53;;;;;;;16.77;8.83;;;;;;;-6.98;80.87;98558.69;6237103;28;20307;-71
2022/03/02 06:07:55;;;;;;;19.00;9.93;;;;;;;-6.97;80.30;98552.72;6226241;28;20248;-72
2022/03/02 06:10:58;;;;;;;19.07;9.13;;;;;;;-6.95;80.74;98558.72;6251907;28;20246;-72
2022/03/02 06:14:00;;;;;;;18.93;9.83;;;;;;;-6.93;80.97;98551.88;6236705;28;20237;-71
2022/03/02 06:17:02;;;;;;;27.73;9.70;;;;;;;-6.89;80.24;98558.75;6253396;28;20231;-72
2022/03/02 06:20:06;;;;;;;17.57;9.20;;;;;;;-6.87;80.58;98549.31;6233196;28;20233;-72
2022/03/02 06:23:09;;;;;;;16.57;8.73;;;;;;;-6.82;80.60;98554.47;6252680;28;20617;-72
2022/03/02 06:26:12;;;;;;;14.90;8.60;;;;;;;-6.75;80.02;98554.47;6238535;28;20242;-72
2022/03/02 06:29:16;;;;;;;15.17;8.63;;;;;;;-6.72;79.74;98551.06;6235338;28;20225;-72
2022/03/02 06:32:18;;;;;;;19.90;9.87;;;;;;;-6.68;80.93;98547.63;6234815;28;20528;-72
2022/03/02 06:35:20;;;;;;;21.80;11.10;;;;;;;-6.63;80.07;98548.53;6231470;28;20683;-72
2022/03/02 06:38:22;;;;;;;17.73;10.07;;;;;;;-6.58;80.44;98544.22;6259175;28;20730;-72
2022/03/02 06:41:45;;;;;;;16.27;9.20;;;;;;;-6.52;80.77;98549.41;6270660;28;20364;-72
2022/03/02 06:44:52;;;;;;;19.70;9.80;;;;;;;-6.44;79.93;98554.53;6260226;28;20242;-72
2022/03/02 06:48:09;;;;;;;23.00;10.17;;;;;;;-6.37;80.19;98558.81;6276165;28;20311;-72
2022/03/02 06:51:15;;;;;;;17.77;8.87;;;;;;;-6.29;80.20;98544.28;6259167;28;20230;-72
2022/03/02 06:54:24;;;;;;;26.87;9.70;;;;;;;-6.22;80.14;98540.84;6261108;28;20221;-72
2022/03/02 06:57:28;;;;;;;21.50;9.17;;;;;;;-6.10;80.05;98542.56;6277043;28;20229;-72
2022/03/02 07:00:32;;;;;;;15.53;9.30;;;;;;;-6.00;80.01;98537.41;6258993;28;20234;-72
2022/03/02 07:03:41;;;;;;;18.27;9.30;;;;;;;-5.88;80.10;98545.94;6240860;28;20783;-72
2022/03/02 07:06:45;;;;;;;19.60;9.00;;;;;;;-5.75;80.00;98538.19;6260302;28;20230;-72
2022/03/02 07:09:47;;;;;;;17.60;9.47;;;;;;;-5.60;80.20;98539.88;6225733;28;20239;-72
2022/03/02 07:12:49;;;;;;;23.20;9.63;;;;;;;-5.47;80.15;98536.38;6269729;28;20236;-72
2022/03/02 07:15:52;;;;;;;21.43;8.90;;;;;;;-5.34;80.02;98527.78;6276487;28;20227;-72
2022/03/02 07:18:54;;;;;;;20.27;10.47;;;;;;;-5.19;79.25;98529.44;6254953;28;20294;-72
2022/03/02 07:22:04;;;;;;;14.30;9.07;;;;;;;-4.92;78.05;98533.59;6252286;28;20376;-72
2022/03/02 07:25:21;;;;;;;17.50;8.50;;;;;;;-4.63;77.08;98530.84;6259159;28;20582;-72
2022/03/02 07:28:23;;;;;;;17.70;9.00;;;;;;;-4.40;76.03;98525.56;6276417;28;20470;-72
2022/03/02 07:31:26;;;;;;;17.17;8.63;;;;;;;-4.17;75.19;98521.91;6260654;28;20215;-72
2022/03/02 07:35:02;;;;;;;15.73;8.03;;;;;;;-3.96;73.99;98522.59;6276506;28;20368;-72
2022/03/02 07:38:06;;;;;;;12.10;7.50;;;;;;;-3.92;74.39;98519.13;6167545;28;20225;-72
2022/03/02 07:41:10;;;;;;;18.03;9.17;;;;;;;-3.84;74.09;98525.91;6177005;28;20232;-72
2022/03/02 07:44:12;;;;;;;15.53;9.23;;;;;;;-3.70;73.39;98520.63;6176064;28;20229;-72
2022/03/02 07:47:15;;;;;;;13.87;8.10;;;;;;;-3.55;72.81;98506.69;6175404;28;20232;-72
2022/03/02 07:50:17;;;;;;;16.27;7.97;;;;;;;-3.37;72.41;98515.09;6178963;28;20705;-72
2022/03/02 07:53:23;;;;;;;16.83;8.27;;;;;;;-3.03;68.70;98518.13;6174948;28;20240;-72
2022/03/02 07:56:28;;;;;;;17.37;8.17;;;;;;;-2.68;66.79;98509.88;6172895;28;20569;-72
2022/03/02 07:59:36;;;;;;;13.70;7.87;;;;;;;-2.33;64.70;98509.34;6176421;28;20663;-72
2022/03/02 08:02:40;;;;;;;16.83;8.23;;;;;;;-2.00;62.83;98501.94;6175067;28;20229;-72
2022/03/02 08:05:45;;;;;;;14.23;7.83;;;;;;;-1.73;61.28;98501.44;6159456;28;20229;-72
2022/03/02 08:08:50;;;;;;;18.73;8.03;;;;;;;-1.42;58.31;98495.69;6159288;28;20328;-71
2022/03/02 08:11:52;;;;;;;14.80;8.47;;;;;;;-1.02;55.70;98478.44;6173210;28;20328;-72
2022/03/02 08:14:55;;;;;;;16.33;7.83;;;;;;;-0.75;54.98;98477.00;6219332;28;20237;-72
2022/03/02 08:17:58;;;;;;;13.33;7.73;;;;;;;-0.51;53.29;98473.84;6257083;28;20768;-72
2022/03/02 08:21:20;;;;;;;11.90;7.30;;;;;;;-0.11;52.74;98472.88;6273896;28;20230;-71
2022/03/02 08:24:28;;;;;;;13.73;7.57;;;;;;;0.22;51.76;98466.81;6274137;28;20313;-72
2022/03/02 08:27:30;;;;;;;13.37;7.70;;;;;;;0.58;50.35;98464.97;6273134;28;20752;-72
2022/03/02 08:30:34;;;;;;;16.90;7.50;;;;;;;0.93;50.52;98457.91;6275323;28;20222;-71
2022/03/02 08:33:37;;;;;;;12.40;7.43;;;;;;;1.27;49.12;98465.56;6275166;28;20716;-71
2022/03/02 08:36:43;;;;;;;14.30;6.93;;;;;;;1.54;48.29;98464.69;6253892;28;20222;-71
2022/03/02 08:39:46;;;;;;;11.93;6.97;;;;;;;1.78;48.17;98458.72;6229102;28;20239;-70
2022/03/02 08:42:50;;;;;;;14.00;7.33;;;;;;;1.98;47.06;98444.19;6273637;28;20241;-70
2022/03/02 08:45:52;;;;;;;11.20;6.63;;;;;;;2.29;46.59;98433.56;6273795;28;20769;-70
2022/03/02 08:48:55;;;;;;;10.63;6.10;;;;;;;2.63;45.38;98431.44;6259986;28;20234;-70
2022/03/02 08:51:58;;;;;;;11.73;6.83;;;;;;;2.84;43.84;98422.84;6256898;28;20234;-70
2022/03/02 08:55:09;;;;;;;11.77;7.50;;;;;;;2.95;43.81;98420.69;6273353;28;20235;-70
2022/03/02 08:58:12;;;;;;;12.07;6.93;;;;;;;3.28;43.69;98407.25;6274178;28;20238;-70
2022/03/02 09:01:15;;;;;;;20.60;6.70;;;;;;;3.50;41.72;98407.22;6277186;28;20236;-69
2022/03/02 09:04:18;;;;;;;11.20;6.53;;;;;;;3.70;39.30;98407.25;6262719;28;20230;-70
2022/03/02 09:07:21;;;;;;;12.13;7.13;;;;;;;3.68;39.65;98401.28;6275922;28;20579;-70
2022/03/02 09:10:23;;;;;;;10.50;6.20;;;;;;;3.55;38.93;98400.06;6279138;28;20231;-70
2022/03/02 09:13:25;;;;;;;10.97;6.73;;;;;;;3.47;37.59;98394.31;6262072;28;20226;-71
2022/03/02 09:16:28;;;;;;;9.43;6.63;;;;;;;3.61;38.47;98390.22;6262987;28;20234;-71
2022/03/02 09:19:32;;;;;;;11.13;7.07;;;;;;;3.84;38.72;98375.38;6255121;28;20595;-70
2022/03/02 09:22:37;;;;;;;11.10;6.33;;;;;;;4.34;39.04;98371.44;6265931;28;20632;-70
2022/03/02 09:25:41;;;;;;;14.20;7.93;;;;;;;4.52;37.07;98381.97;6262939;28;20240;-70
2022/03/02 09:28:46;;;;;;;13.80;7.10;;;;;;;4.45;38.01;98365.72;6261662;28;20230;-71
2022/03/02 09:31:50;;;;;;;10.77;6.80;;;;;;;4.58;37.63;98366.88;6260606;28;20293;-69
2022/03/02 09:35:13;;;;;;;12.53;7.10;;;;;;;5.12;37.33;98366.09;6261092;28;20232;-70
2022/03/02 09:38:18;;;;;;;10.00;6.43;;;;;;;5.57;37.25;98378.72;6241599;28;20238;-70
2022/03/02 09:41:35;;;;;;;13.67;6.90;;;;;;;5.83;35.27;98366.97;6253234;28;20230;-71
2022/03/02 09:44:49;;;;;;;9.30;6.80;;;;;;;5.90;35.97;98359.66;6253822;28;20284;-70
2022/03/02 09:47:57;;;;;;;11.73;7.03;;;;;;;5.88;36.35;98356.28;6253307;28;20255;-70
2022/03/02 09:51:04;;;;;;;15.13;7.90;;;;;;;5.59;35.05;98354.25;6254168;28;20235;-70
2022/03/02 09:54:08;;;;;;;11.87;7.90;;;;;;;5.70;36.66;98346.69;6260525;28;20698;-70
2022/03/02 09:57:10;;;;;;;12.47;7.90;;;;;;;5.63;35.31;98342.69;6278541;28;20702;-70
2022/03/02 10:00:17;;;;;;;10.93;7.40;;;;;;;5.46;35.86;98346.16;6276805;28;20225;-70
2022/03/02 10:03:19;;;;;;;10.90;7.73;;;;;;;5.44;36.25;98361.06;6278284;28;20230;-70
2022/03/02 10:06:22;;;;;;;14.93;8.20;;;;;;;5.79;35.15;98341.84;6277638;28;20342;-69
2022/03/02 10:09:28;;;;;;;13.27;8.77;;;;;;;5.49;34.95;98336.34;6242766;28;20246;-70
2022/03/02 10:12:34;;;;;;;14.23;8.30;;;;;;;5.98;35.93;98338.34;6279042;28;20646;-70
2022/03/02 10:15:37;;;;;;;13.83;8.90;;;;;;;5.78;35.33;98331.47;6277981;28;20758;-69
2022/03/02 10:18:41;;;;;;;15.47;8.17;;;;;;;6.04;35.66;98341.47;6276262;28;20252;-70
2022/03/02 10:22:02;;;;;;;17.37;8.40;;;;;;;6.07;35.77;98335.25;6254710;28;20254;-69
2022/03/02 10:25:08;;;;;;;12.50;8.43;;;;;;;6.13;34.88;98337.53;6277975;28;20218;-69
2022/03/02 10:28:16;;;;;;;15.60;8.60;;;;;;;6.63;35.57;98330.47;6278376;28;20234;-70
2022/03/02 10:31:20;;;;;;;15.13;8.17;;;;;;;6.54;34.92;98330.97;6279547;28;20220;-69
2022/03/02 10:34:25;;;;;;;13.00;8.70;;;;;;;6.27;34.82;98332.44;6258806;28;20260;-69
2022/03/02 10:37:53;;;;;;;13.23;8.47;;;;;;;6.50;35.48;98318.06;6236129;28;20398;-69
2022/03/02 10:40:58;;;;;;;13.20;8.23;;;;;;;7.01;34.84;98319.63;6244370;28;20230;-70
2022/03/02 10:44:40;;;;;;;11.63;8.03;;;;;;;6.96;35.40;98324.31;6277956;28;20322;-69
2022/03/02 10:47:46;;;;;;;13.87;8.93;;;;;;;6.88;35.51;98326.50;6265273;28;20234;-69
2022/03/02 10:50:52;;;;;;;13.33;9.00;;;;;;;6.40;33.98;98311.63;6260940;28;20228;-69
2022/03/02 10:53:56;;;;;;;15.93;9.67;;;;;;;6.41;35.49;98294.97;6259960;28;20229;-70
2022/03/02 10:57:02;;;;;;;14.40;9.07;;;;;;;6.63;34.53;98301.59;6243663;28;20232;-69
2022/03/02 11:00:13;;;;;;;12.43;8.57;;;;;;;6.31;34.23;98289.38;6259510;28;20228;-70
2022/03/02 11:03:15;;;;;;;14.53;8.67;;;;;;;6.46;34.48;98288.56;6263144;28;20676;-70
2022/03/02 11:06:20;;;;;;;13.67;9.37;;;;;;;6.68;33.67;98293.50;6262383;28;20663;-68
2022/03/02 11:09:24;;;;;;;12.83;8.30;;;;;;;6.73;33.56;98293.22;6269834;28;20313;-69
2022/03/02 11:12:29;;;;;;;13.80;8.87;;;;;;;7.46;33.56;98279.44;6277063;28;20233;-68
2022/03/02 11:15:46;;;;;;;13.80;9.27;;;;;;;7.53;31.55;98272.03;6278223;28;20753;-70
2022/03/02 11:18:50;;;;;;;14.10;8.37;;;;;;;7.51;32.47;98266.03;6274127;28;20234;-69
2022/03/02 11:21:57;;;;;;;13.80;8.53;;;;;;;7.61;32.12;98256.66;6256187;28;20237;-69
2022/03/02 11:24:59;;;;;;;12.00;7.50;;;;;;;7.46;31.49;98260.22;6258595;28;20590;-69
2022/03/02 11:28:05;;;;;;;12.33;8.10;;;;;;;8.21;32.17;98257.38;6259087;28;20230;-69
2022/03/02 11:31:08;;;;;;;12.40;8.70;;;;;;;8.25;31.37;98253.63;6277616;28;20248;-69
2022/03/02 11:34:26;;;;;;;10.27;8.30;;;;;;;8.29;30.81;98247.22;6259419;28;20756;-69
2022/03/02 11:37:32;;;;;;;12.00;8.50;;;;;;;8.41;30.02;98235.97;6239975;28;20613;-68
2022/03/02 11:40:52;;;;;;;11.73;7.47;;;;;;;8.02;30.76;98248.94;6269181;28;20235;-69
2022/03/02 11:43:54;;;;;;;14.23;8.53;;;;;;;8.14;30.99;98243.78;6258209;28;20237;-70
2022/03/02 11:47:03;;;;;;;12.17;7.87;;;;;;;8.69;30.14;98226.34;6275492;28;20237;-69
2022/03/02 11:50:07;;;;;;;9.87;7.60;;;;;;;9.16;30.04;98228.53;6276723;28;20242;-70
2022/03/02 11:53:09;;;;;;;13.50;7.87;;;;;;;8.70;29.13;98225.41;6277207;28;20237;-69
2022/03/02 11:56:16;;;;;;;10.57;7.57;;;;;;;8.98;29.18;98217.44;6241737;28;20234;-69
2022/03/02 11:59:18;;;;;;;11.17;8.00;;;;;;;8.96;27.76;98219.31;6257784;28;20327;-70
2022/03/02 12:02:22;;;;;;;11.70;8.40;;;;;;;9.06;28.38;98211.66;6259371;28;20227;-70
2022/03/02 12:05:31;;;;;;;10.40;7.43;;;;;;;8.92;26.54;98212.56;6277160;28;20236;-70
2022/03/02 12:08:33;;;;;;;11.23;7.67;;;;;;;9.00;28.27;98215.53;6260633;28;20235;-70
2022/03/02 12:11:38;;;;;;;12.40;7.83;;;;;;;9.49;27.90;98188.56;6267729;28;20861;-70
2022/03/02 12:14:44;;;;;;;13.50;7.90;;;;;;;9.80;28.08;98189.94;6275162;28;20364;-70
2022/03/02 12:17:49;;;;;;;11.10;7.37;;;;;;;10.13;27.73;98184.13;6257101;28;20601;-70
2022/03/02 12:20:54;;;;;;;11.57;7.23;;;;;;;10.34;27.48;98180.00;6264250;28;20469;-70
2022/03/02 12:23:59;;;;;;;14.37;8.13;;;;;;;10.38;27.14;98180.63;6276493;28;20280;-70
2022/03/02 12:27:06;;;;;;;9.93;7.70;;;;;;;10.33;26.18;98179.16;6275486;28;20602;-70
2022/03/02 12:30:11;;;;;;;12.60;7.73;;;;;;;10.31;25.99;98185.47;6240266;28;20654;-70
2022/03/02 12:33:17;;;;;;;10.23;7.20;;;;;;;10.04;25.23;98180.34;6257386;28;20285;-70
2022/03/02 12:36:20;;;;;;;11.83;8.13;;;;;;;9.65;25.21;98180.47;6250235;28;20239;-71
2022/03/02 12:39:43;;;;;;;11.90;8.00;;;;;;;9.02;26.08;98170.66;6238631;28;20257;-70
2022/03/02 12:42:47;;;;;;;11.87;7.63;;;;;;;9.36;26.65;98167.47;6257034;28;20578;-70
2022/03/02 12:45:50;;;;;;;13.60;8.40;;;;;;;9.68;26.42;98162.66;6274801;28;20705;-70
2022/03/02 12:48:55;;;;;;;11.97;7.87;;;;;;;10.14;27.01;98160.28;6257240;28;20635;-69
2022/03/02 12:52:03;;;;;;;10.10;8.20;;;;;;;10.66;26.19;98160.06;6256738;28;20756;-70
2022/03/02 12:55:07;;;;;;;11.27;8.27;;;;;;;10.38;25.64;98160.38;6257847;28;20218;-68
2022/03/02 12:58:10;;;;;;;11.67;7.70;;;;;;;10.80;26.14;98158.19;6275193;28;20733;-69
2022/03/02 13:01:12;;;;;;;9.90;7.40;;;;;;;11.17;25.80;98156.31;6274980;28;20580;-69
2022/03/02 13:04:22;;;;;;;11.73;8.00;;;;;;;11.39;25.38;98151.06;6257060;28;20245;-70
2022/03/02 13:07:55;;;;;;;13.40;8.27;;;;;;;11.67;25.06;98144.53;6273806;28;20317;-69
2022/03/02 13:10:58;;;;;;;10.90;7.60;;;;;;;11.91;24.31;98149.72;6274257;28;20311;-69
2022/03/02 13:14:01;;;;;;;13.07;8.07;;;;;;;12.01;24.53;98140.09;6256662;28;20231;-69
2022/03/02 13:17:17;;;;;;;11.90;8.37;;;;;;;11.38;25.22;98137.00;6275581;28;20231;-69
2022/03/02 13:20:46;;;;;;;8.40;7.40;;;;;;;11.66;24.66;98132.28;6273740;28;20236;-69
2022/03/02 13:24:15;;;;;;;12.33;8.53;;;;;;;12.14;24.45;98135.53;6258314;28;20304;-69
2022/03/02 13:27:18;;;;;;;9.73;7.80;;;;;;;13.09;23.42;98124.19;6273905;28;20304;-69
2022/03/02 13:30:20;;;;;;;10.83;7.63;;;;;;;14.44;21.57;98116.97;6247811;28;20465;-69
2022/03/02 13:33:22;;;;;;;10.17;7.33;;;;;;;14.73;19.99;98106.38;6274608;28;20237;-69
2022/03/02 13:36:46;;;;;;;9.97;7.37;;;;;;;15.71;18.55;98106.16;6260398;28;20596;-70
2022/03/02 13:39:48;;;;;;;11.57;8.07;;;;;;;17.59;18.04;98100.00;6221478;28;20631;-70
2022/03/02 13:42:50;;;;;;;11.73;7.37;;;;;;;17.91;15.66;98099.38;6274565;28;20232;-69
2022/03/02 13:45:58;;;;;;;10.83;6.93;;;;;;;17.66;16.40;98101.94;6275126;28;20243;-69
2022/03/02 13:49:00;;;;;;;9.17;6.73;;;;;;;19.14;15.16;98099.63;6260562;28;20224;-70
2022/03/02 13:52:04;;;;;;;10.67;7.10;;;;;;;19.48;14.08;98094.94;6258921;28;20219;-71
2022/03/02 13:55:12;;;;;;;13.20;6.90;;;;;;;19.09;14.47;98099.25;6265552;28;20779;-72
2022/03/02 13:58:41;;;;;;;8.40;6.80;;;;;;;19.87;14.35;98096.88;6246097;28;20346;-71
2022/03/02 14:01:47;;;;;;;9.20;7.13;;;;;;;20.18;13.97;98089.72;6275117;28;20227;-71
2022/03/02 14:04:51;;;;;;;10.10;7.30;;;;;;;20.00;13.57;98089.13;6263875;28;20309;-71
2022/03/02 14:07:54;;;;;;;8.60;6.87;;;;;;;20.49;13.54;98087.13;6242910;28;20644;-71
2022/03/02 14:10:58;;;;;;;7.83;6.77;;;;;;;20.43;13.33;98073.59;6242775;28;20810;-71
2022/03/02 14:14:05;;;;;;;10.63;7.60;;;;;;;19.64;13.88;98078.03;6285629;28;20837;-70
2022/03/02 14:17:09;;;;;;;8.50;6.80;;;;;;;19.14;14.18;98075.53;6237893;28;20293;-71
2022/03/02 14:20:13;;;;;;;10.10;6.63;;;;;;;14.86;17.16;98087.50;6262938;28;20233;-70
2022/03/02 14:23:16;;;;;;;9.90;6.87;;;;;;;12.26;20.22;98086.09;6274139;28;20756;-70
2022/03/02 14:26:19;;;;;;;9.47;6.97;;;;;;;10.96;22.02;98096.22;6259925;28;20643;-70